Time;durP1;ratioP1;P1;durP2;ratioP2;P2;SDS_P1;SDS_P2;PMS_P1;PMS_P2;Temp;Humidity;BMP_temperature;BMP_pressure;BME280_temperature;BME280_humidity;BME280_pressure;Samples;Min_cycle;Max_cycle;Signal;HPM_P1;HPM_P2
2022/10/02 00:00:07;;;;;;;0.50;0.50;;;11.60;99.90;;;;;;5074632;28;20036;-85
2022/10/02 00:02:41;;;;;;;0.90;0.90;;;11.50;99.90;;;;;;5060358;28;20037;-84
2022/10/02 00:05:36;;;;;;;0.30;0.30;;;11.50;99.90;;;;;;5082067;28;20393;-84
2022/10/02 00:08:12;;;;;;;0.47;0.47;;;11.40;99.90;;;;;;5064194;28;20534;-82
2022/10/02 00:10:49;;;;;;;0.32;0.32;;;11.30;99.90;;;;;;5078237;28;20048;-84
2022/10/02 00:13:23;;;;;;;0.38;0.38;;;11.30;99.90;;;;;;5085672;28;20378;-83
2022/10/02 00:15:54;;;;;;;0.30;0.30;;;11.20;99.90;;;;;;5096042;28;20044;-86
2022/10/02 00:18:27;;;;;;;0.40;0.40;;;11.10;99.90;;;;;;5082932;28;20101;-85
2022/10/02 00:21:12;;;;;;;1.50;1.45;;;11.00;99.90;;;;;;5070138;28;20361;-87
2022/10/02 00:24:10;;;;;;;0.30;0.30;;;11.00;99.90;;;;;;5090793;28;20056;-85
2022/10/02 00:26:40;;;;;;;;;;;10.90;99.90;;;;;;5085351;28;20056;-85
2022/10/02 00:29:26;;;;;;;1.08;1.05;;;10.90;99.90;;;;;;5089102;28;19921;-86
2022/10/02 00:32:14;;;;;;;0.25;0.25;;;10.80;99.90;;;;;;5081661;28;20157;-87
2022/10/02 00:34:57;;;;;;;0.40;0.40;;;10.70;99.90;;;;;;5086866;28;20102;-82
2022/10/02 00:37:41;;;;;;;0.30;0.30;;;10.70;99.90;;;;;;5076005;28;20040;-87
2022/10/02 00:40:55;;;;;;;0.30;0.30;;;10.60;99.90;;;;;;5081540;28;20058;-86
2022/10/02 00:43:41;;;;;;;0.40;0.40;;;10.60;99.90;;;;;;5056294;28;20080;-88
2022/10/02 00:46:35;;;;;;;0.43;0.43;;;10.60;99.90;;;;;;5073478;28;20367;-86
2022/10/02 00:49:25;;;;;;;0.40;0.40;;;10.60;99.90;;;;;;5090115;28;20165;-86
2022/10/02 00:52:14;;;;;;;0.40;0.40;;;10.60;99.90;;;;;;5091723;28;20063;-85
2022/10/02 00:55:11;;;;;;;1.95;0.52;;;10.60;99.90;;;;;;5078687;28;20039;-88
2022/10/02 00:58:12;;;;;;;0.40;0.40;;;10.60;99.90;;;;;;5079133;28;20044;-86
2022/10/02 01:00:41;;;;;;;0.60;0.60;;;10.60;99.90;;;;;;5086030;28;20122;-82
2022/10/02 01:03:10;;;;;;;1.55;0.50;;;10.50;99.90;;;;;;5097912;28;20105;-87
2022/10/02 01:05:36;;;;;;;0.82;0.70;;;10.50;99.90;;;;;;5083479;28;20110;-87
2022/10/02 01:08:03;;;;;;;0.30;0.30;;;10.50;99.90;;;;;;5080981;28;20032;-86
2022/10/02 01:10:30;;;;;;;0.68;0.68;;;10.50;99.90;;;;;;5080775;28;20127;-86
2022/10/02 01:12:57;;;;;;;0.40;0.40;;;10.50;99.90;;;;;;5091707;28;20036;-84
2022/10/02 01:15:29;;;;;;;0.50;0.50;;;10.50;99.90;;;;;;5090212;28;20044;-84
2022/10/02 01:17:55;;;;;;;0.40;0.40;;;10.50;99.90;;;;;;5094436;28;20059;-85
2022/10/02 01:20:43;;;;;;;0.50;0.50;;;10.50;99.90;;;;;;5077478;28;20039;-88
2022/10/02 01:23:23;;;;;;;0.38;0.38;;;10.50;99.90;;;;;;5094606;28;20043;-88
2022/10/02 01:25:49;;;;;;;0.65;0.60;;;10.50;99.90;;;;;;5089682;28;20048;-85
2022/10/02 01:28:18;;;;;;;0.38;0.38;;;10.50;99.90;;;;;;5092454;28;20113;-88
2022/10/02 01:30:48;;;;;;;0.35;0.35;;;10.50;99.90;;;;;;5095913;28;20157;-88
2022/10/02 01:33:14;;;;;;;0.50;0.50;;;10.50;99.90;;;;;;5065515;28;20076;-84
2022/10/02 01:35:41;;;;;;;0.82;0.82;;;10.50;99.90;;;;;;5078269;28;20044;-85
2022/10/02 01:38:08;;;;;;;;;;;10.50;99.90;;;;;;5096108;28;20397;-88
2022/10/02 01:40:36;;;;;;;0.40;0.40;;;10.50;99.90;;;;;;5071985;28;19998;-86
2022/10/02 01:43:22;;;;;;;0.50;0.50;;;10.50;99.90;;;;;;5058295;28;20043;-87
2022/10/02 01:46:09;;;;;;;0.65;0.65;;;10.50;99.90;;;;;;5091192;28;20051;-88
2022/10/02 01:48:43;;;;;;;0.38;0.38;;;10.50;99.90;;;;;;5078828;28;20044;-86
2022/10/02 01:51:43;;;;;;;0.30;0.30;;;10.40;99.90;;;;;;5087378;28;20048;-87
2022/10/02 01:54:24;;;;;;;0.55;0.55;;;10.40;99.90;;;;;;5094475;28;20051;-84
2022/10/02 01:57:11;;;;;;;0.60;0.60;;;10.40;99.90;;;;;;5082333;28;20036;-85
2022/10/02 01:59:58;;;;;;;0.40;0.40;;;10.40;99.90;;;;;;5083738;28;20089;-84
2022/10/02 02:02:50;;;;;;;0.65;0.65;;;10.50;99.90;;;;;;5085998;28;20032;-88
2022/10/02 02:05:51;;;;;;;0.90;0.90;;;10.50;99.90;;;;;;5086693;28;20033;-85
2022/10/02 02:08:31;;;;;;;0.30;0.30;;;10.60;99.90;;;;;;5089961;28;20067;-86
2022/10/02 02:11:08;;;;;;;0.50;0.50;;;10.50;99.90;;;;;;5089489;28;20035;-87
2022/10/02 02:13:37;;;;;;;0.57;0.50;;;10.50;99.90;;;;;;5083843;28;20040;-86
2022/10/02 02:16:20;;;;;;;1.02;0.93;;;10.50;99.90;;;;;;5095879;28;20035;-89
2022/10/02 02:18:49;;;;;;;0.60;0.60;;;10.50;99.90;;;;;;5089551;28;20039;-83
2022/10/02 02:21:25;;;;;;;0.40;0.40;;;10.50;99.90;;;;;;5094892;28;20044;-84
2022/10/02 02:23:53;;;;;;;0.52;0.52;;;10.50;99.90;;;;;;5085459;28;20079;-87
2022/10/02 02:26:20;;;;;;;0.30;0.30;;;10.40;99.90;;;;;;5071717;28;20056;-86
2022/10/02 02:28:54;;;;;;;0.63;0.63;;;10.40;99.90;;;;;;5089739;28;20064;-86
2022/10/02 02:31:26;;;;;;;0.60;0.60;;;10.40;99.90;;;;;;5092508;28;20042;-85
2022/10/02 02:33:59;;;;;;;0.60;0.60;;;10.40;99.90;;;;;;5094095;28;20040;-85
2022/10/02 02:36:33;;;;;;;0.43;0.43;;;10.40;99.90;;;;;;5094559;28;20392;-88
2022/10/02 02:39:04;;;;;;;0.32;0.32;;;10.50;99.90;;;;;;5096397;28;20048;-84
2022/10/02 02:41:36;;;;;;;0.50;0.50;;;10.50;99.90;;;;;;5102815;28;20039;-83
2022/10/02 02:44:28;;;;;;;0.38;0.38;;;10.60;99.90;;;;;;5090036;28;20048;-85
2022/10/02 02:47:02;;;;;;;0.60;0.60;;;10.60;99.90;;;;;;5108611;28;20056;-86
2022/10/02 02:49:49;;;;;;;0.40;0.40;;;10.70;99.90;;;;;;5098152;28;20408;-84
2022/10/02 02:52:25;;;;;;;0.80;0.80;;;10.80;99.90;;;;;;5098079;28;20040;-87
2022/10/02 02:54:59;;;;;;;0.40;0.40;;;10.80;99.90;;;;;;5094078;28;20040;-86
2022/10/02 02:57:36;;;;;;;0.65;0.65;;;10.80;99.90;;;;;;5076241;28;20573;-86
2022/10/02 03:00:05;;;;;;;0.32;0.32;;;10.90;99.90;;;;;;5071174;28;20049;-83
2022/10/02 03:02:31;;;;;;;0.30;0.30;;;10.90;99.90;;;;;;5074080;28;20047;-83
2022/10/02 03:04:57;;;;;;;0.35;0.35;;;11.00;99.90;;;;;;5087639;28;20054;-84
2022/10/02 03:07:23;;;;;;;0.30;0.30;;;11.10;99.90;;;;;;5093465;28;20036;-86
2022/10/02 03:10:25;;;;;;;0.57;0.40;;;11.00;99.90;;;;;;5063102;28;20037;-86
2022/10/02 03:13:19;;;;;;;0.35;0.35;;;11.00;99.90;;;;;;5058859;28;20423;-84
2022/10/02 03:15:44;;;;;;;0.52;0.52;;;11.00;99.90;;;;;;5089104;28;20517;-84
2022/10/02 03:18:25;;;;;;;0.47;0.47;;;11.00;99.90;;;;;;5092714;28;20096;-85
2022/10/02 03:21:15;;;;;;;0.30;0.30;;;11.00;99.90;;;;;;5076517;28;20044;-84
2022/10/02 03:23:57;;;;;;;0.38;0.38;;;10.90;99.90;;;;;;5087681;28;20127;-84
2022/10/02 03:26:51;;;;;;;0.68;0.68;;;11.00;99.90;;;;;;5088981;28;20053;-84
2022/10/02 03:29:28;;;;;;;0.30;0.30;;;10.90;99.90;;;;;;5057504;28;20480;-86
2022/10/02 03:31:55;;;;;;;0.30;0.30;;;11.00;99.90;;;;;;5089733;28;20031;-84
2022/10/02 03:34:22;;;;;;;0.20;0.20;;;11.00;99.90;;;;;;5076805;28;20031;-90
2022/10/02 03:36:48;;;;;;;0.35;0.35;;;11.00;99.90;;;;;;5067967;28;20044;-84
2022/10/02 03:39:14;;;;;;;;;;;11.00;99.90;;;;;;5060747;28;20059;-83
2022/10/02 03:41:40;;;;;;;0.20;0.20;;;11.00;99.90;;;;;;5094590;28;19916;-87
2022/10/02 03:44:05;;;;;;;0.30;0.30;;;11.00;99.90;;;;;;5094761;28;20401;-84
2022/10/02 03:46:31;;;;;;;0.47;0.47;;;11.00;99.90;;;;;;5070236;28;20471;-84
2022/10/02 03:48:57;;;;;;;0.45;0.45;;;11.10;99.90;;;;;;5093565;28;20123;-86
2022/10/02 03:51:23;;;;;;;0.20;0.20;;;11.10;99.90;;;;;;5084560;28;20036;-86
2022/10/02 03:53:49;;;;;;;0.60;0.60;;;11.10;99.90;;;;;;5085714;28;20032;-84
2022/10/02 03:56:37;;;;;;;0.32;0.32;;;11.20;99.90;;;;;;5060635;28;20051;-88
2022/10/02 03:59:11;;;;;;;0.50;0.50;;;11.20;99.90;;;;;;5085577;28;20056;-87
2022/10/02 04:01:41;;;;;;;0.40;0.40;;;11.20;99.90;;;;;;5092306;28;20043;-86
2022/10/02 04:04:16;;;;;;;0.40;0.40;;;11.20;99.90;;;;;;5082313;28;20123;-85
2022/10/02 04:06:50;;;;;;;0.40;0.40;;;11.20;99.90;;;;;;5091304;28;20096;-83
2022/10/02 04:10:06;;;;;;;0.30;0.30;;;11.20;99.90;;;;;;5092876;28;20039;-84
2022/10/02 04:12:40;;;;;;;0.40;0.40;;;11.10;99.90;;;;;;5085374;28;20431;-84
2022/10/02 04:15:42;;;;;;;0.20;0.20;;;11.10;99.90;;;;;;5089582;28;20485;-83
2022/10/02 04:18:19;;;;;;;0.50;0.50;;;11.20;99.90;;;;;;5084071;28;20048;-84
2022/10/02 04:21:33;;;;;;;0.73;0.73;;;11.10;99.90;;;;;;5087498;28;20036;-85
2022/10/02 04:24:23;;;;;;;0.47;0.47;;;11.10;99.90;;;;;;5071495;28;20052;-85
2022/10/02 04:27:04;;;;;;;0.90;0.90;;;11.10;99.90;;;;;;5068572;28;20055;-84
2022/10/02 04:29:38;;;;;;;0.35;0.35;;;11.20;99.90;;;;;;5083664;28;20036;-83
2022/10/02 04:32:25;;;;;;;0.30;0.30;;;11.20;99.90;;;;;;5086548;28;20044;-82
2022/10/02 04:34:51;;;;;;;0.40;0.40;;;11.20;99.90;;;;;;5088040;28;20057;-83
2022/10/02 04:37:41;;;;;;;0.47;0.47;;;11.10;99.90;;;;;;5097862;28;20089;-83
2022/10/02 04:40:29;;;;;;;0.30;0.30;;;11.10;99.90;;;;;;5091325;28;20048;-88
2022/10/02 04:43:07;;;;;;;0.30;0.30;;;11.10;99.90;;;;;;5069659;28;20047;-83
2022/10/02 04:45:32;;;;;;;3.95;3.22;;;11.00;99.90;;;;;;5090866;28;20484;-83
2022/10/02 04:48:29;;;;;;;0.20;0.20;;;11.00;99.90;;;;;;5073625;28;20046;-83
2022/10/02 04:51:28;;;;;;;0.93;0.93;;;11.00;99.90;;;;;;5084998;28;20040;-85
2022/10/02 04:54:11;;;;;;;0.40;0.40;;;11.00;99.90;;;;;;5070012;28;20097;-83
2022/10/02 04:57:14;;;;;;;0.52;0.52;;;11.10;99.90;;;;;;5094379;28;20044;-84
2022/10/02 04:59:49;;;;;;;0.32;0.32;;;11.10;99.90;;;;;;5088055;28;20071;-86
2022/10/02 05:02:14;;;;;;;0.30;0.30;;;11.10;99.90;;;;;;5074706;28;20048;-86
2022/10/02 05:04:59;;;;;;;0.30;0.30;;;11.10;99.90;;;;;;5083729;28;20048;-84
2022/10/02 05:08:02;;;;;;;0.73;0.60;;;11.10;99.90;;;;;;5084059;28;20050;-86
2022/10/02 05:11:00;;;;;;;1.40;1.38;;;11.00;99.90;;;;;;5092396;28;20048;-86
2022/10/02 05:13:35;;;;;;;;;;;11.00;99.90;;;;;;5040274;28;20076;-85
2022/10/02 05:16:38;;;;;;;0.60;0.60;;;10.90;99.90;;;;;;5082168;28;20014;-85
2022/10/02 05:19:26;;;;;;;1.38;1.30;;;10.90;99.90;;;;;;5060058;28;20056;-87
2022/10/02 05:22:13;;;;;;;0.52;0.52;;;10.90;99.90;;;;;;5075056;28;20147;-88
2022/10/02 05:25:06;;;;;;;0.40;0.40;;;10.80;99.90;;;;;;5067040;28;20082;-85
2022/10/02 05:27:35;;;;;;;0.32;0.32;;;10.80;99.90;;;;;;5080370;28;20493;-86
2022/10/02 05:30:18;;;;;;;0.40;0.40;;;10.70;99.90;;;;;;5078659;28;20042;-87
2022/10/02 05:33:05;;;;;;;0.40;0.40;;;10.70;99.90;;;;;;5070342;28;20045;-86
2022/10/02 05:35:59;;;;;;;0.60;0.60;;;10.50;99.90;;;;;;5075567;28;20036;-85
2022/10/02 05:38:48;;;;;;;0.40;0.40;;;10.40;99.90;;;;;;5087864;28;20046;-85
2022/10/02 05:41:52;;;;;;;0.30;0.30;;;10.30;99.90;;;;;;5085933;28;20079;-87
2022/10/02 05:44:36;;;;;;;0.40;0.40;;;10.20;99.90;;;;;;5070650;28;20132;-86
2022/10/02 05:47:18;;;;;;;0.40;0.40;;;10.40;99.90;;;;;;5078637;28;20036;-87
2022/10/02 05:49:51;;;;;;;0.47;0.47;;;10.10;99.90;;;;;;5089832;28;20048;-84
2022/10/02 05:52:22;;;;;;;0.40;0.40;;;10.10;99.90;;;;;;5083026;28;20070;-91
2022/10/02 05:54:54;;;;;;;0.50;0.50;;;10.00;99.90;;;;;;5079429;28;20524;-86
2022/10/02 05:57:42;;;;;;;0.60;0.60;;;10.00;99.90;;;;;;5108873;28;20036;-85
2022/10/02 06:00:13;;;;;;;0.43;0.43;;;10.00;99.90;;;;;;5077571;28;20043;-84
2022/10/02 06:03:11;;;;;;;0.40;0.40;;;10.00;99.90;;;;;;5085574;28;20047;-86
2022/10/02 06:05:46;;;;;;;0.40;0.40;;;10.00;99.90;;;;;;5077973;28;20063;-86
2022/10/02 06:08:19;;;;;;;0.40;0.40;;;10.00;99.90;;;;;;5088148;28;20035;-88
2022/10/02 06:10:50;;;;;;;0.40;0.40;;;10.30;99.90;;;;;;5096082;28;20063;-86
2022/10/02 06:13:34;;;;;;;0.40;0.40;;;10.10;99.90;;;;;;5082646;28;20088;-86
2022/10/02 06:16:31;;;;;;;0.50;0.50;;;10.10;99.90;;;;;;5082641;28;20547;-86
2022/10/02 06:19:04;;;;;;;0.30;0.30;;;10.10;99.90;;;;;;5071114;28;20477;-86
2022/10/02 06:21:54;;;;;;;0.40;0.40;;;10.10;99.90;;;;;;5071014;28;20325;-86
2022/10/02 06:24:29;;;;;;;0.43;0.43;;;10.10;99.90;;;;;;5080065;28;20105;-85
2022/10/02 06:27:12;;;;;;;0.50;0.50;;;10.10;99.90;;;;;;5090453;28;20545;-85
2022/10/02 06:29:58;;;;;;;2.35;1.00;;;10.20;99.90;;;;;;5086117;28;20071;-87
2022/10/02 06:32:51;;;;;;;0.30;0.30;;;10.20;99.90;;;;;;5088167;28;20036;-84
2022/10/02 06:35:33;;;;;;;0.35;0.35;;;10.30;99.90;;;;;;5089242;28;20083;-86
2022/10/02 06:38:07;;;;;;;0.40;0.40;;;10.40;99.90;;;;;;5096229;28;20051;-87
2022/10/02 06:40:44;;;;;;;0.40;0.40;;;10.40;99.90;;;;;;5080749;28;20036;-85
2022/10/02 06:43:17;;;;;;;0.40;0.40;;;10.60;99.90;;;;;;5085024;28;20148;-85
2022/10/02 06:45:44;;;;;;;0.40;0.40;;;10.70;99.90;;;;;;5079794;28;20044;-88
2022/10/02 06:48:25;;;;;;;0.50;0.50;;;10.80;99.90;;;;;;5069539;28;20040;-85
2022/10/02 06:51:25;;;;;;;0.60;0.60;;;10.90;99.90;;;;;;5081730;28;20039;-84
2022/10/02 06:53:59;;;;;;;0.30;0.30;;;11.20;99.90;;;;;;5061544;28;20069;-87
2022/10/02 06:56:43;;;;;;;0.57;0.57;;;11.40;99.90;;;;;;5090579;28;20047;-88
2022/10/02 06:59:18;;;;;;;0.40;0.40;;;11.50;99.90;;;;;;5096293;28;20039;-84
2022/10/02 07:02:02;;;;;;;0.45;0.45;;;11.70;99.90;;;;;;5083635;28;20040;-87
2022/10/02 07:04:34;;;;;;;15.00;0.90;;;11.80;99.90;;;;;;5064480;28;20429;-87
2022/10/02 07:07:33;;;;;;;0.50;0.50;;;11.90;99.90;;;;;;5096390;28;20055;-86
2022/10/02 07:10:09;;;;;;;0.40;0.40;;;11.90;99.90;;;;;;5076798;28;20541;-87
2022/10/02 07:12:52;;;;;;;0.32;0.32;;;12.00;99.90;;;;;;5091656;28;20123;-89
2022/10/02 07:15:21;;;;;;;0.30;0.30;;;12.00;99.90;;;;;;5076232;28;20134;-87
2022/10/02 07:18:09;;;;;;;0.45;0.45;;;12.00;99.90;;;;;;5084919;28;20485;-84
2022/10/02 07:20:48;;;;;;;0.73;0.73;;;12.00;99.90;;;;;;5090615;28;20548;-87
2022/10/02 07:23:15;;;;;;;0.60;0.60;;;12.00;99.90;;;;;;5090521;28;20086;-86
2022/10/02 07:25:49;;;;;;;0.30;0.30;;;12.00;99.90;;;;;;5093172;28;20052;-84
2022/10/02 07:28:34;;;;;;;0.30;0.30;;;12.00;99.90;;;;;;5065064;28;20039;-89
2022/10/02 07:31:13;;;;;;;0.30;0.30;;;12.00;99.90;;;;;;5083169;28;20481;-86
2022/10/02 07:33:45;;;;;;;0.30;0.30;;;12.10;99.90;;;;;;5088398;28;20051;-87
2022/10/02 07:36:46;;;;;;;0.32;0.32;;;12.20;99.90;;;;;;5102120;28;20512;-85
2022/10/02 07:39:17;;;;;;;0.40;0.40;;;12.20;99.90;;;;;;5070461;28;20075;-84
2022/10/02 07:41:53;;;;;;;1.75;1.65;;;12.30;99.90;;;;;;5083099;28;20036;-85
2022/10/02 07:44:44;;;;;;;0.30;0.30;;;12.40;99.90;;;;;;5069260;28;20051;-85
2022/10/02 07:47:42;;;;;;;0.30;0.30;;;12.50;99.90;;;;;;5069454;28;20052;-90
2022/10/02 07:50:47;;;;;;;0.40;0.40;;;12.70;99.90;;;;;;5048519;28;20406;-84
2022/10/02 07:53:27;;;;;;;0.30;0.30;;;12.80;99.90;;;;;;5082740;28;20060;-85
2022/10/02 07:55:54;;;;;;;1.85;1.75;;;12.80;99.90;;;;;;5094748;28;20036;-84
2022/10/02 07:58:53;;;;;;;1.35;1.08;;;12.90;99.90;;;;;;5093715;28;20090;-89
2022/10/02 08:01:24;;;;;;;0.30;0.30;;;12.90;99.90;;;;;;5083165;28;20369;-87
2022/10/02 08:04:01;;;;;;;0.25;0.25;;;12.90;99.90;;;;;;5091487;28;20047;-87
2022/10/02 08:06:27;;;;;;;0.40;0.40;;;12.90;99.90;;;;;;5084515;28;20040;-86
2022/10/02 08:09:00;;;;;;;0.30;0.30;;;12.90;99.90;;;;;;5079619;28;20119;-87
2022/10/02 08:11:47;;;;;;;0.30;0.30;;;12.90;99.90;;;;;;5098051;28;20048;-86
2022/10/02 08:14:35;;;;;;;0.25;0.25;;;12.90;99.90;;;;;;5081007;28;20036;-85
2022/10/02 08:17:26;;;;;;;0.40;0.40;;;13.00;99.90;;;;;;5092961;28;20098;-84
2022/10/02 08:19:57;;;;;;;1.58;1.48;;;13.20;99.90;;;;;;5082426;28;20036;-88
2022/10/02 08:22:25;;;;;;;0.40;0.40;;;13.30;99.90;;;;;;5074209;28;20035;-87
2022/10/02 08:25:04;;;;;;;0.47;0.47;;;13.40;99.90;;;;;;5075882;28;20055;-89
2022/10/02 08:27:58;;;;;;;0.30;0.30;;;13.30;99.90;;;;;;5070030;28;20123;-85
2022/10/02 08:30:24;;;;;;;0.40;0.40;;;13.30;99.90;;;;;;5086146;28;20127;-87
2022/10/02 08:32:50;;;;;;;0.30;0.30;;;13.30;99.90;;;;;;5070044;28;20036;-85
2022/10/02 08:35:19;;;;;;;0.47;0.47;;;13.30;99.90;;;;;;5095968;28;20048;-86
2022/10/02 08:38:22;;;;;;;0.32;0.32;;;13.30;99.90;;;;;;5079358;28;20066;-86
2022/10/02 08:41:10;;;;;;;0.30;0.30;;;13.30;99.90;;;;;;5090677;28;20050;-88
2022/10/02 08:44:13;;;;;;;0.30;0.30;;;13.30;99.90;;;;;;5069486;28;20073;-90
2022/10/02 08:47:36;;;;;;;0.38;0.38;;;13.40;99.90;;;;;;5082380;28;20249;-86
2022/10/02 08:50:43;;;;;;;0.30;0.30;;;13.40;99.90;;;;;;5058797;28;20045;-85
2022/10/02 08:53:18;;;;;;;0.30;0.30;;;13.40;99.90;;;;;;5061825;28;20051;-86
2022/10/02 08:56:10;;;;;;;1.05;1.05;;;13.40;99.90;;;;;;5085477;28;20485;-88
2022/10/02 08:59:08;;;;;;;0.30;0.30;;;13.30;99.90;;;;;;5068750;28;20044;-85
2022/10/02 09:01:52;;;;;;;0.30;0.30;;;13.20;99.90;;;;;;5087060;28;20052;-84
2022/10/02 09:04:21;;;;;;;0.40;0.40;;;13.20;99.90;;;;;;5086968;28;20051;-85
2022/10/02 09:07:29;;;;;;;0.30;0.30;;;13.10;99.90;;;;;;5076087;28;20032;-87
2022/10/02 09:10:24;;;;;;;0.38;0.38;;;13.20;99.90;;;;;;5067527;28;20057;-87
2022/10/02 09:13:28;;;;;;;8.07;1.65;;;13.20;99.90;;;;;;5087755;28;20132;-87
2022/10/02 09:16:10;;;;;;;0.30;0.30;;;13.30;99.90;;;;;;5099851;28;20036;-86
2022/10/02 09:19:02;;;;;;;0.30;0.30;;;13.30;99.90;;;;;;5114471;28;20040;-88
2022/10/02 09:21:51;;;;;;;1.05;1.05;;;13.20;99.90;;;;;;5090069;28;20040;-86
2022/10/02 09:24:58;;;;;;;0.38;0.38;;;13.10;99.90;;;;;;5078549;28;20106;-88
2022/10/02 09:27:39;;;;;;;0.25;0.25;;;13.00;99.90;;;;;;5096697;28;20093;-88
2022/10/02 09:30:40;;;;;;;1.85;0.30;;;13.00;99.90;;;;;;5099718;28;20055;-88
2022/10/02 09:33:22;;;;;;;0.40;0.40;;;13.00;99.90;;;;;;5064768;28;20056;-85
2022/10/02 09:36:17;;;;;;;0.40;0.40;;;13.20;99.90;;;;;;5078375;28;20036;-87
2022/10/02 09:39:12;;;;;;;0.40;0.40;;;13.40;99.90;;;;;;5102208;28;20119;-84
2022/10/02 09:42:19;;;;;;;0.40;0.40;;;13.50;99.90;;;;;;5099672;28;20036;-88
2022/10/02 09:45:07;;;;;;;0.30;0.30;;;13.70;99.90;;;;;;5093654;28;20064;-82
2022/10/02 09:48:00;;;;;;;0.38;0.38;;;13.90;99.90;;;;;;5097682;28;20055;-86
2022/10/02 09:50:51;;;;;;;0.32;0.32;;;14.00;99.90;;;;;;5062550;28;20087;-88
2022/10/02 09:53:47;;;;;;;0.30;0.30;;;14.20;99.90;;;;;;5074080;28;20085;-92
2022/10/02 09:56:37;;;;;;;0.65;0.65;;;14.40;99.90;;;;;;5093853;28;20042;-87
2022/10/02 09:59:21;;;;;;;0.20;0.20;;;14.50;99.90;;;;;;5092485;28;20046;-86
2022/10/02 10:02:11;;;;;;;1.00;1.00;;;14.60;99.90;;;;;;5100737;28;20554;-88
2022/10/02 10:04:56;;;;;;;0.70;0.70;;;14.80;99.90;;;;;;5078927;28;20047;-88
2022/10/02 10:07:53;;;;;;;0.43;0.43;;;15.00;99.90;;;;;;5088170;28;20040;-87
2022/10/02 10:10:37;;;;;;;0.45;0.45;;;15.20;99.90;;;;;;5069740;28;20108;-87
2022/10/02 10:13:40;;;;;;;0.68;0.68;;;15.30;99.90;;;;;;5095525;28;20471;-86
2022/10/02 10:16:10;;;;;;;0.25;0.25;;;15.30;99.90;;;;;;5096209;28;20043;-89
2022/10/02 10:18:55;;;;;;;1.15;1.10;;;15.30;99.90;;;;;;5078013;28;20189;-89
2022/10/02 10:21:27;;;;;;;1.05;1.05;;;15.20;99.90;;;;;;5069093;28;20472;-91
2022/10/02 10:24:14;;;;;;;0.22;0.22;;;15.00;99.90;;;;;;5074214;28;20221;-88
2022/10/02 10:27:01;;;;;;;0.30;0.30;;;15.10;99.90;;;;;;5087778;28;20052;-89
2022/10/02 10:29:59;;;;;;;0.30;0.30;;;15.30;99.90;;;;;;5073583;28;20062;-88
2022/10/02 10:33:00;;;;;;;0.73;0.73;;;15.40;99.90;;;;;;5076685;28;20052;-84
2022/10/02 10:36:02;;;;;;;0.50;0.50;;;15.40;99.90;;;;;;5092363;28;20126;-88
2022/10/02 10:38:53;;;;;;;0.40;0.40;;;15.30;99.90;;;;;;5060625;28;20057;-89
2022/10/02 10:41:50;;;;;;;0.40;0.40;;;15.20;99.90;;;;;;5078229;28;20055;-88
2022/10/02 10:44:18;;;;;;;1.17;0.77;;;15.10;99.90;;;;;;5067926;28;20447;-89
2022/10/02 10:47:18;;;;;;;0.85;0.82;;;15.00;99.90;;;;;;5085582;28;20036;-86
2022/10/02 10:50:16;;;;;;;0.50;0.45;;;14.90;99.90;;;;;;5069530;28;20032;-87
2022/10/02 10:53:10;;;;;;;0.73;0.73;;;14.70;99.90;;;;;;5091396;28;20044;-88
2022/10/02 10:55:58;;;;;;;0.30;0.30;;;14.70;99.90;;;;;;5086541;28;20040;-86
2022/10/02 10:59:05;;;;;;;0.20;0.20;;;15.00;99.90;;;;;;5080861;28;20041;-88
2022/10/02 11:01:55;;;;;;;0.40;0.40;;;15.20;99.90;;;;;;5091360;28;20525;-89
2022/10/02 11:04:24;;;;;;;;;;;15.50;99.90;;;;;;5082334;28;20040;-89
2022/10/02 11:07:08;;;;;;;0.55;0.55;;;15.60;99.90;;;;;;5056620;28;20369;-88
2022/10/02 11:09:39;;;;;;;0.20;0.20;;;15.80;99.90;;;;;;5077292;28;20044;-88
2022/10/02 11:12:45;;;;;;;2.72;0.45;;;15.90;99.90;;;;;;5082481;28;20499;-88
2022/10/02 11:15:36;;;;;;;0.98;0.98;;;15.90;99.90;;;;;;5067913;28;20492;-87
2022/10/02 11:18:05;;;;;;;0.40;0.40;;;16.00;99.90;;;;;;5087171;28;20478;-86
2022/10/02 11:20:31;;;;;;;0.40;0.40;;;16.00;99.90;;;;;;5076106;28;20047;-88
2022/10/02 11:23:08;;;;;;;2.72;0.70;;;16.10;99.90;;;;;;5081537;28;20036;-86
2022/10/02 11:25:44;;;;;;;0.30;0.30;;;16.20;99.90;;;;;;5087111;28;20044;-89
2022/10/02 11:28:59;;;;;;;0.80;0.80;;;16.30;99.90;;;;;;5089722;28;20054;-86
2022/10/02 11:31:45;;;;;;;0.20;0.20;;;16.50;99.90;;;;;;5052936;28;20190;-89
2022/10/02 11:34:20;;;;;;;0.68;0.68;;;16.40;99.90;;;;;;5074810;28;20076;-88
2022/10/02 11:37:06;;;;;;;0.30;0.30;;;16.50;99.90;;;;;;5085426;28;20549;-88
2022/10/02 11:39:54;;;;;;;0.30;0.30;;;16.60;99.90;;;;;;5068028;28;20051;-88
2022/10/02 11:42:59;;;;;;;0.30;0.30;;;16.70;99.90;;;;;;5064599;28;20040;-87
2022/10/02 11:45:46;;;;;;;0.50;0.50;;;16.80;99.90;;;;;;5086681;28;20071;-85
2022/10/02 11:48:32;;;;;;;1.75;0.93;;;16.80;99.90;;;;;;5104361;28;20044;-87
2022/10/02 11:51:08;;;;;;;0.20;0.20;;;16.80;99.90;;;;;;5083549;28;20044;-87
2022/10/02 11:54:15;;;;;;;9.80;0.98;;;16.70;99.90;;;;;;5094753;28;20048;-86
2022/10/02 11:56:58;;;;;;;0.20;0.20;;;16.70;99.90;;;;;;5077600;28;20048;-86
2022/10/02 12:00:11;;;;;;;0.30;0.30;;;16.70;99.90;;;;;;5090986;28;20059;-86
2022/10/02 12:02:50;;;;;;;1.15;1.15;;;16.60;99.90;;;;;;5037665;28;20048;-88
2022/10/02 12:05:22;;;;;;;0.98;0.98;;;16.70;99.90;;;;;;5069224;28;20048;-87
2022/10/02 12:07:57;;;;;;;0.20;0.20;;;16.80;99.90;;;;;;5084042;28;20460;-88
2022/10/02 12:10:51;;;;;;;0.57;0.57;;;16.80;99.90;;;;;;5079458;28;20107;-87
2022/10/02 12:13:42;;;;;;;0.25;0.25;;;16.70;99.90;;;;;;5089065;28;20484;-87
2022/10/02 12:16:44;;;;;;;0.30;0.30;;;16.60;99.90;;;;;;5079957;28;20055;-89
2022/10/02 12:19:30;;;;;;;0.30;0.30;;;16.40;99.90;;;;;;5092061;28;20069;-86
2022/10/02 12:28:21;;;;;;;1.85;1.40;;;16.40;99.90;;;;;;5086240;28;20040;-86
2022/10/02 12:31:06;;;;;;;2.30;0.70;;;16.40;99.90;;;;;;5079570;28;20040;-86
2022/10/02 12:33:47;;;;;;;0.30;0.30;;;16.40;99.90;;;;;;5072744;28;20050;-84
2022/10/02 12:36:55;;;;;;;0.90;0.90;;;16.50;99.90;;;;;;5093995;28;20370;-89
2022/10/02 12:39:53;;;;;;;0.70;0.70;;;16.60;99.90;;;;;;5072373;28;20036;-89
2022/10/02 12:42:34;;;;;;;0.47;0.47;;;16.50;99.90;;;;;;5070638;28;20036;-89
2022/10/02 12:45:26;;;;;;;0.22;0.22;;;16.60;99.90;;;;;;5078074;28;20044;-90
2022/10/02 12:48:11;;;;;;;0.82;0.82;;;16.50;99.90;;;;;;5065771;28;20032;-88
2022/10/02 12:51:04;;;;;;;0.30;0.30;;;16.50;99.90;;;;;;5066089;28;20116;-87
2022/10/02 12:53:39;;;;;;;0.30;0.30;;;16.50;99.90;;;;;;5088422;28;20044;-89
2022/10/02 12:56:38;;;;;;;0.30;0.30;;;16.50;99.90;;;;;;5078255;28;20102;-87
2022/10/02 12:59:29;;;;;;;0.30;0.30;;;16.50;99.90;;;;;;5073983;28;20531;-87
2022/10/02 13:02:19;;;;;;;0.60;0.60;;;16.60;99.90;;;;;;5084859;28;20129;-86
2022/10/02 13:05:03;;;;;;;0.30;0.30;;;16.70;99.90;;;;;;5081592;28;20040;-88
2022/10/02 13:07:56;;;;;;;1.60;1.13;;;16.50;99.90;;;;;;5097559;28;20072;-88
2022/10/02 13:10:48;;;;;;;0.30;0.30;;;16.20;99.90;;;;;;5084046;28;20362;-88
2022/10/02 13:13:40;;;;;;;0.90;0.88;;;15.90;99.90;;;;;;5083207;28;20043;-89
2022/10/02 13:16:12;;;;;;;0.30;0.30;;;15.90;99.90;;;;;;5091330;28;20055;-89
2022/10/02 13:18:44;;;;;;;0.50;0.50;;;16.00;99.90;;;;;;5087832;28;20371;-89
2022/10/02 13:21:36;;;;;;;0.75;0.75;;;16.10;99.90;;;;;;5079688;28;20049;-87
2022/10/02 13:24:18;;;;;;;0.20;0.20;;;16.50;99.90;;;;;;5091569;28;20044;-88
2022/10/02 13:27:09;;;;;;;0.30;0.30;;;16.90;99.90;;;;;;5096427;28;20127;-87
2022/10/02 13:30:10;;;;;;;0.45;0.45;;;16.80;99.90;;;;;;5074130;28;20517;-86
2022/10/02 13:32:57;;;;;;;0.30;0.30;;;16.60;99.90;;;;;;5047433;28;20044;-87
2022/10/02 13:35:56;;;;;;;0.40;0.40;;;17.10;99.90;;;;;;5078208;28;20401;-87
2022/10/02 13:38:59;;;;;;;0.68;0.68;;;17.30;99.90;;;;;;5077574;28;20047;-88
2022/10/02 13:41:38;;;;;;;1.77;1.10;;;16.90;99.90;;;;;;5090626;28;20043;-88
2022/10/02 13:44:32;;;;;;;0.30;0.30;;;16.70;99.90;;;;;;5087075;28;20040;-87
2022/10/02 13:47:33;;;;;;;0.98;0.98;;;17.30;99.90;;;;;;5089440;28;20471;-84
2022/10/02 13:50:33;;;;;;;0.20;0.20;;;17.90;99.90;;;;;;5057436;28;20542;-87
2022/10/02 13:53:26;;;;;;;0.30;0.30;;;18.00;99.90;;;;;;5097997;28;20036;-86
2022/10/02 13:56:02;;;;;;;0.28;0.28;;;17.50;99.90;;;;;;5067782;28;20105;-86
2022/10/02 13:59:05;;;;;;;1.02;0.98;;;17.10;99.90;;;;;;5081221;28;20422;-86
2022/10/02 14:01:40;;;;;;;0.43;0.43;;;17.40;99.90;;;;;;5069281;28;20659;-87
2022/10/02 14:04:13;;;;;;;0.25;0.25;;;17.40;99.90;;;;;;5086923;28;20055;-86
2022/10/02 14:06:50;;;;;;;0.20;0.20;;;17.20;99.90;;;;;;5071060;28;20049;-87
2022/10/02 14:09:22;;;;;;;0.40;0.40;;;17.50;99.90;;;;;;5070162;28;20083;-86
2022/10/02 14:12:09;;;;;;;0.60;0.60;;;17.90;99.90;;;;;;5063998;28;20041;-86
2022/10/02 14:14:41;;;;;;;8.18;0.77;;;17.90;99.90;;;;;;5071175;28;20389;-86
2022/10/02 14:17:39;;;;;;;0.20;0.20;;;17.90;99.90;;;;;;5083747;28;20077;-83